Terminal Aerodrome Forecast
Issued by NWS Portland, OR

Home | Current Version | Previous Version | Text Only | Print | Product List | Glossary On
Versions: 1 2 3 4 5 6 7 8 9 10 11 12 13 14 15 16 17 18 19 20 21 22 23 24 25 26 27 28 29 30 31 32 33 34 35 36 37 38 39 40 41 42 43 44 45 46 47 48 49 50
000
FTUS46 KPQR 101732
TAFPDX
TAF
KPDX 101732Z 1018/1118 13007KT P6SM OVC008
     FM102000 13006KT P6SM SCT008 OVC015
     FM102100 15007KT P6SM -RA SCT015 BKN025 OVC040
     FM102300 18009KT P6SM -RA BKN015 OVC030
     FM110400 20009KT P6SM -SHRA BKN025 OVC040
     FM111300 18007KT 5SM -RA BR BKN015 OVC035=

USA.gov is the U.S. government's official web portal to all federal, state and local government web resources and services.